Stations météo

réclame
Mon MeteoGroup
Grazalema, Espagne (8455): Température de l'air & dewpoint: 11.07.2018 13:00:00 - 17.07.2018 13:00:00 (CEST)Grazalema, Espagne (8455): Vitesse du vent & gusts: 11.07.2018 13:00:00 - 17.07.2018 13:00:00 (CEST)Grazalema, Espagne (8455): Direction du vent: 11.07.2018 13:00:00 - 17.07.2018 13:00:00 (CEST)Grazalema, Espagne (8455): Quantités de précipitations: 11.07.2018 13:00:00 - 17.07.2018 13:00:00 (CEST)
Date & Time tt [°C] td [°C] ff [km/h] ff [knt] fx [km/h] fx [knt] dd rr [mm]
17.07.2018 13:00:00 29,2 10,8 9 5 24 13 ENE 0,0
17.07.2018 12:00:00 28,2 9,9 9 5 21 12 E 0,0
17.07.2018 11:00:00 26,8 11,3 4 2 14 7 E 0,0
17.07.2018 10:00:00 23,2 11,6 4 2 8 4 E 0,0
17.07.2018 09:00:00 19,5 11,6 4 2 12 7 WNW 0,0
17.07.2018 08:00:00 15,4 8,0 8 4 13 7 W -
17.07.2018 07:00:00 14,2 7,3 5 3 11 6 W 0,0
17.07.2018 06:00:00 14,4 7,8 7 4 11 6 W 0,0
17.07.2018 05:00:00 14,3 8,0 6 4 13 7 W 0,0
17.07.2018 04:00:00 14,7 8,4 8 4 13 7 W 0,0
17.07.2018 03:00:00 15,7 8,9 8 4 14 8 W 0,0
17.07.2018 02:00:00 15,5 9,2 8 5 14 7 W -
17.07.2018 01:00:00 15,4 8,7 8 5 13 7 W 0,0
17.07.2018 00:00:00 15,9 8,1 9 5 13 7 W 0,0
16.07.2018 23:00:00 16,7 7,8 9 5 11 6 W 0,0
16.07.2018 22:00:00 17,9 8,4 5 3 9 5 W 0,0
16.07.2018 21:00:00 20,9 9,4 4 2 8 4 W 0,0
16.07.2018 20:00:00 24,0 10,6 1 1 11 6 ESE -
16.07.2018 19:00:00 25,2 11,8 2 1 13 7 N 0,0
16.07.2018 18:00:00 25,3 11,8 4 2 20 11 ENE 0,0
16.07.2018 17:00:00 25,6 12,1 7 4 20 11 ENE 0,0
16.07.2018 16:00:00 25,0 11,6 11 6 23 12 E 0,0
16.07.2018 15:00:00 24,9 11,8 12 6 26 14 ENE 0,0
16.07.2018 14:00:00 23,7 10,8 11 6 22 12 E -
16.07.2018 13:00:00 22,7 10,5 5 3 15 8 E 0,0
16.07.2018 12:00:00 21,5 10,6 6 4 16 8 E 0,0
16.07.2018 11:00:00 19,7 9,8 3 2 16 9 NNW 0,0
16.07.2018 10:00:00 17,5 12,4 5 3 14 7 ENE 0,0
16.07.2018 09:00:00 16,4 10,9 1 1 9 5 NNE 0,0
16.07.2018 08:00:00 13,8 10,8 1 1 10 5 NNW -
16.07.2018 07:00:00 13,4 10,4 1 1 12 6 W 0,0
16.07.2018 06:00:00 14,2 11,7 1 1 11 6 E 0,0
16.07.2018 05:00:00 13,9 11,6 1 0 15 8 E 0,0
16.07.2018 04:00:00 15,0 12,3 6 4 20 11 WNW 0,0
16.07.2018 03:00:00 15,2 12,5 6 3 23 12 W 0,0
16.07.2018 02:00:00 14,7 12,0 8 4 19 11 W -
16.07.2018 01:00:00 14,0 11,9 6 4 21 11 W 0,0
16.07.2018 00:00:00 13,9 11,8 6 4 19 10 W 0,0
15.07.2018 23:00:00 14,3 12,3 9 5 22 12 W 0,0
15.07.2018 22:00:00 14,9 12,4 9 5 22 12 W 0,0
15.07.2018 21:00:00 16,0 12,0 6 4 18 10 WSW 0,0
15.07.2018 20:00:00 16,9 11,0 7 4 22 12 W -
15.07.2018 19:00:00 18,8 10,4 9 5 23 13 W 0,0
15.07.2018 18:00:00 19,7 10,6 9 5 28 15 W 0,0
15.07.2018 17:00:00 20,8 12,0 9 5 27 15 W 0,0
15.07.2018 16:00:00 21,4 12,2 9 5 27 15 W 0,0
15.07.2018 15:00:00 21,0 12,6 10 5 27 15 W 0,0
15.07.2018 14:00:00 20,8 12,7 8 4 26 14 W -
15.07.2018 13:00:00 20,3 13,8 8 4 21 11 W 0,0
15.07.2018 12:00:00 19,2 13,0 9 5 21 11 W 0,0
15.07.2018 11:00:00 18,6 11,7 5 3 12 6 NE 0,0
15.07.2018 10:00:00 16,7 10,3 4 2 10 5 NE 0,0
15.07.2018 09:00:00 14,7 9,3 3 1 6 4 ENE 0,0
15.07.2018 08:00:00 12,6 4,3 1 1 11 6 WNW -
15.07.2018 07:00:00 13,5 4,6 4 2 11 6 WNW 0,0
15.07.2018 06:00:00 12,1 3,4 6 4 9 5 W 0,0
15.07.2018 05:00:00 11,2 10,3 5 3 10 5 W 0,0
15.07.2018 04:00:00 11,4 8,1 2 1 12 7 W 0,0
15.07.2018 03:00:00 13,3 9,6 3 1 14 7 NW 0,0
15.07.2018 02:00:00 14,7 4,1 9 5 13 7 WNW -
15.07.2018 01:00:00 16,2 8,0 7 4 14 8 W 0,0
15.07.2018 00:00:00 16,8 9,7 7 4 14 7 W 0,0
14.07.2018 23:00:00 17,2 11,0 6 4 13 7 W 0,0
14.07.2018 22:00:00 17,2 11,7 8 4 17 9 W 0,0
14.07.2018 21:00:00 18,3 11,8 9 5 19 11 WNW 0,0
14.07.2018 20:00:00 20,4 12,6 9 5 26 14 W -
14.07.2018 19:00:00 21,9 13,6 10 5 24 13 W 0,0
14.07.2018 18:00:00 23,4 14,4 10 5 22 12 W 0,0
14.07.2018 17:00:00 24,2 14,3 11 6 26 14 W 0,0
14.07.2018 16:00:00 24,3 14,4 10 5 22 12 W 0,0
14.07.2018 15:00:00 25,3 15,3 8 4 19 10 W 0,0
14.07.2018 14:00:00 24,8 14,9 9 5 19 10 W -
14.07.2018 13:00:00 24,6 14,4 8 4 19 10 W 0,0
14.07.2018 12:00:00 24,2 13,8 5 3 19 10 W 0,0
14.07.2018 11:00:00 22,3 12,2 8 5 19 11 W 0,0
14.07.2018 10:00:00 21,3 12,2 6 3 19 10 W 0,0
14.07.2018 09:00:00 18,8 10,6 9 5 19 10 W 0,0
14.07.2018 08:00:00 18,0 9,8 7 4 21 11 WSW -
14.07.2018 07:00:00 17,5 9,4 7 4 20 11 W 0,0
14.07.2018 06:00:00 18,0 9,0 7 4 22 12 W 0,0
14.07.2018 05:00:00 18,3 9,0 6 3 21 11 W 0,0
14.07.2018 04:00:00 18,5 8,8 6 3 22 12 WSW 0,0
14.07.2018 03:00:00 18,3 8,8 4 2 13 7 WSW 0,0
14.07.2018 02:00:00 17,5 9,4 5 3 11 6 W -
14.07.2018 01:00:00 14,8 6,8 8 4 14 8 W 0,0
14.07.2018 00:00:00 14,6 6,7 10 5 14 7 W 0,0
13.07.2018 23:00:00 15,3 8,1 5 3 13 7 W 0,0
13.07.2018 22:00:00 17,3 11,8 4 2 13 7 WNW 0,0
13.07.2018 21:00:00 19,8 12,7 6 3 14 7 WSW 0,0
13.07.2018 20:00:00 22,2 13,6 1 1 11 6 N -
13.07.2018 19:00:00 22,7 13,8 6 3 18 10 W 0,0
13.07.2018 18:00:00 23,5 13,9 8 5 23 12 W 0,0
13.07.2018 17:00:00 23,9 13,8 8 4 19 10 WNW 0,0
13.07.2018 16:00:00 24,9 14,3 6 3 18 10 WSW 0,0
13.07.2018 15:00:00 24,6 14,4 3 1 16 9 ENE 0,0
13.07.2018 14:00:00 23,2 13,9 6 3 18 10 ENE -
13.07.2018 13:00:00 21,9 13,8 5 3 15 8 ENE 0,0
13.07.2018 12:00:00 20,1 13,1 5 3 17 9 NW 0,0
13.07.2018 11:00:00 18,7 13,2 3 2 13 7 ENE 0,0
13.07.2018 10:00:00 15,2 12,3 6 3 13 7 E 0,0
13.07.2018 09:00:00 14,2 12,1 3 1 8 4 ENE 0,0
13.07.2018 08:00:00 10,9 10,3 4 2 16 9 W -
13.07.2018 07:00:00 11,2 10,5 10 5 17 9 WNW 0,0
13.07.2018 06:00:00 10,3 6,1 6 4 11 6 W 0,0
13.07.2018 05:00:00 11,0 7,7 8 4 12 6 W 0,0
13.07.2018 04:00:00 11,5 10,4 8 5 16 8 W 0,0
13.07.2018 03:00:00 12,2 9,2 8 4 16 9 WNW 0,0
13.07.2018 02:00:00 12,6 9,6 6 4 10 5 W -
13.07.2018 01:00:00 14,9 12,0 5 3 10 6 W 0,0
13.07.2018 00:00:00 15,3 13,4 7 4 11 6 W 0,0
12.07.2018 23:00:00 14,9 12,5 6 3 14 7 WNW 0,0
12.07.2018 22:00:00 16,0 12,5 5 3 21 11 WNW 0,0
12.07.2018 21:00:00 17,7 13,1 8 5 29 15 W 0,0
12.07.2018 20:00:00 19,2 13,6 10 5 24 13 W -
12.07.2018 19:00:00 21,5 15,1 8 5 20 11 W 0,0
12.07.2018 18:00:00 22,2 15,8 8 5 21 12 W 0,0
12.07.2018 17:00:00 23,5 16,8 8 4 19 11 W 0,0
12.07.2018 16:00:00 23,5 16,6 9 5 21 11 W 0,0
12.07.2018 15:00:00 23,9 16,4 9 5 18 10 ENE 0,0
12.07.2018 14:00:00 22,6 16,0 10 5 18 10 E -
12.07.2018 13:00:00 22,3 16,3 5 3 13 7 ENE 0,0
12.07.2018 12:00:00 22,1 16,1 6 3 13 7 E 0,0
12.07.2018 11:00:00 21,0 15,1 3 1 11 6 NE 0,0
12.07.2018 10:00:00 19,8 14,4 3 1 7 4 ENE 0,0
12.07.2018 09:00:00 17,8 13,6 1 1 5 3 ENE 0,0
12.07.2018 08:00:00 15,2 12,7 1 0 7 4 NW -
12.07.2018 07:00:00 16,5 12,4 0 0 10 5 NNE 0,0
12.07.2018 06:00:00 15,3 11,1 6 3 9 5 W 0,0
12.07.2018 05:00:00 16,1 10,6 2 1 8 5 WNW 0,0
12.07.2018 04:00:00 17,4 9,8 1 0 8 4 SE 0,0
12.07.2018 03:00:00 17,2 8,7 1 0 8 5 W 0,0
12.07.2018 02:00:00 17,8 7,3 4 2 14 7 WSW -
12.07.2018 01:00:00 16,5 2,5 10 5 14 8 W 0,0
12.07.2018 00:00:00 16,5 3,6 8 5 13 7 W 0,0
11.07.2018 23:00:00 17,0 5,0 8 4 13 7 W 0,0
11.07.2018 22:00:00 17,3 6,2 8 4 11 6 W 0,0
11.07.2018 21:00:00 20,4 11,1 7 4 12 7 W 0,0
11.07.2018 20:00:00 23,0 10,4 7 4 22 12 W -
11.07.2018 19:00:00 24,5 11,1 8 4 26 14 WSW 0,0
11.07.2018 18:00:00 24,9 11,4 10 5 27 15 WSW 0,0
11.07.2018 17:00:00 26,3 12,0 9 5 24 13 WSW 0,0
11.07.2018 16:00:00 26,8 11,7 10 5 24 13 SW 0,0
11.07.2018 15:00:00 27,1 13,1 7 4 21 11 WSW 0,0
11.07.2018 14:00:00 25,9 10,5 8 4 19 11 W -
11.07.2018 13:00:00 27,4 7,3 6 4 20 11 W 0,0

tt = Température de l'air
td = dewpoint
ff = Vitesse du vent
fx = gusts
dd = Direction du vent
rr = Quantités de précipitations

stations d'obs. à proximité